Time;durP1;ratioP1;P1;durP2;ratioP2;P2;SDS_P1;SDS_P2;PMS_P1;PMS_P2;Temp;Humidity;BMP_temperature;BMP_pressure;BME280_temperature;BME280_humidity;BME280_pressure;Samples;Min_cycle;Max_cycle;Signal;HPM_P1;HPM_P2
2022/05/02 00:00:08;;;;;;;5.13;4.60;;;;;;;16.43;57.50;101239.84;4957605;28;20047;-62
2022/05/02 00:02:36;;;;;;;5.50;4.60;;;;;;;16.48;57.29;101240.34;4961493;28;20460;-61
2022/05/02 00:05:04;;;;;;;5.03;4.53;;;;;;;16.45;57.38;101234.44;4957096;28;20404;-62
2022/05/02 00:07:31;;;;;;;6.13;5.28;;;;;;;16.45;57.62;101232.63;4957779;28;20488;-63
2022/05/02 00:09:58;;;;;;;6.28;4.55;;;;;;;16.46;57.51;101229.00;4956971;28;20500;-64
2022/05/02 00:12:25;;;;;;;5.18;4.50;;;;;;;16.47;57.68;101232.53;4956052;28;20054;-62
2022/05/02 00:14:52;;;;;;;6.53;5.88;;;;;;;16.48;57.47;101221.81;4957294;28;20055;-65
2022/05/02 00:17:18;;;;;;;6.82;6.03;;;;;;;16.48;57.97;101223.59;4957116;28;20040;-65
2022/05/02 00:19:45;;;;;;;6.45;5.80;;;;;;;16.48;58.00;101226.25;4957178;28;20106;-65
2022/05/02 00:22:12;;;;;;;7.35;5.70;;;;;;;16.45;58.14;101223.84;4956750;28;20488;-61
2022/05/02 00:24:38;;;;;;;5.88;5.28;;;;;;;16.40;58.40;101220.69;4956891;28;20105;-62
2022/05/02 00:27:05;;;;;;;8.00;6.18;;;;;;;16.39;58.80;101218.97;4956942;28;20500;-61
2022/05/02 00:29:32;;;;;;;6.10;5.50;;;;;;;16.37;58.80;101212.97;4955864;28;20051;-61
2022/05/02 00:31:59;;;;;;;6.80;5.97;;;;;;;16.35;59.23;101213.06;4956966;28;20095;-64
2022/05/02 00:34:25;;;;;;;7.88;5.75;;;;;;;16.33;59.36;101213.19;4956776;28;20054;-63
2022/05/02 00:36:52;;;;;;;6.57;5.60;;;;;;;16.32;59.33;101208.00;4956773;28;20051;-62
2022/05/02 00:39:19;;;;;;;6.40;5.32;;;;;;;16.33;59.34;101215.84;4956526;28;20043;-63
2022/05/02 00:41:45;;;;;;;7.07;5.22;;;;;;;16.32;59.39;101208.00;4956825;28;20054;-64
2022/05/02 00:44:12;;;;;;;6.57;5.53;;;;;;;16.28;59.33;101212.69;4955367;29;20047;-64
2022/05/02 00:46:39;;;;;;;6.57;5.65;;;;;;;16.28;59.71;101206.56;4955473;28;20098;-62
2022/05/02 00:49:06;;;;;;;6.10;5.50;;;;;;;16.28;59.56;101206.56;4956439;28;20062;-63
2022/05/02 00:51:33;;;;;;;5.68;5.07;;;;;;;16.27;59.38;101204.84;4956324;28;20050;-61
2022/05/02 00:53:59;;;;;;;7.13;5.32;;;;;;;16.23;59.60;101201.56;4956217;28;20099;-64
2022/05/02 00:56:26;;;;;;;6.80;5.88;;;;;;;16.20;60.09;101206.25;4956290;28;20047;-62
2022/05/02 00:58:54;;;;;;;6.72;5.30;;;;;;;16.19;59.85;101207.19;4956307;28;20051;-64
2022/05/02 01:01:21;;;;;;;6.50;5.90;;;;;;;16.18;59.96;101206.38;4956226;28;20520;-65
2022/05/02 01:03:49;;;;;;;6.68;5.80;;;;;;;16.20;60.06;101206.25;4956302;28;20114;-63
2022/05/02 01:09:07;;;;;;;6.53;5.72;;;;;;;16.17;60.42;101199.38;4956074;28;20571;-65
2022/05/02 01:11:43;;;;;;;6.63;5.80;;;;;;;16.16;60.20;101201.19;4955946;28;20054;-65
2022/05/02 01:14:15;;;;;;;6.30;5.65;;;;;;;16.18;60.34;101201.06;4956055;28;20465;-61
2022/05/02 01:16:42;;;;;;;6.95;5.75;;;;;;;16.15;60.32;101190.69;4956115;28;20102;-64
2022/05/02 01:19:08;;;;;;;7.63;5.85;;;;;;;16.13;60.41;101198.75;4955596;28;20051;-61
2022/05/02 01:21:36;;;;;;;6.60;5.85;;;;;;;16.09;60.87;101202.59;4954556;28;20051;-64
2022/05/02 01:24:04;;;;;;;7.82;5.95;;;;;;;16.10;60.66;101196.34;4955834;28;20078;-64
2022/05/02 01:26:31;;;;;;;8.23;5.72;;;;;;;16.08;60.51;101195.59;4955892;28;20070;-63
2022/05/02 01:29:00;;;;;;;6.65;6.05;;;;;;;16.08;60.53;101192.94;4955673;28;20496;-62
2022/05/02 01:31:27;;;;;;;8.43;5.30;;;;;;;16.06;60.66;101202.81;4955751;28;20102;-65
2022/05/02 01:33:53;;;;;;;6.93;5.70;;;;;;;16.04;60.82;101194.13;4955626;28;20053;-63
2022/05/02 01:36:23;;;;;;;7.80;5.15;;;;;;;16.00;61.02;101190.88;4955819;28;20076;-64
2022/05/02 01:38:50;;;;;;;6.75;6.05;;;;;;;15.99;61.04;101190.97;4953935;28;20673;-61
2022/05/02 01:41:18;;;;;;;5.45;4.95;;;;;;;15.96;61.23;101188.53;4955633;28;20053;-64
2022/05/02 01:43:45;;;;;;;7.40;5.35;;;;;;;15.95;61.25;101194.81;4955342;28;20050;-61
2022/05/02 01:46:13;;;;;;;6.50;5.82;;;;;;;15.90;61.27;101191.66;4955317;28;20047;-63
2022/05/02 01:48:40;;;;;;;6.70;5.32;;;;;;;15.90;61.38;101186.34;4955282;28;20047;-62
2022/05/02 01:51:07;;;;;;;7.70;6.43;;;;;;;15.91;61.20;101191.53;4954920;28;20039;-65
2022/05/02 01:53:33;;;;;;;7.50;5.68;;;;;;;15.90;61.24;101191.66;4955245;28;20531;-63
2022/05/02 01:56:01;;;;;;;6.22;5.35;;;;;;;15.92;61.42;101187.06;4954457;28;20043;-62
2022/05/02 01:58:28;;;;;;;7.40;5.15;;;;;;;15.92;61.03;101184.44;4955276;28;20492;-62
2022/05/02 02:00:55;;;;;;;6.55;5.07;;;;;;;15.90;60.93;101183.72;4955087;28;20066;-65
2022/05/02 02:03:22;;;;;;;6.65;5.55;;;;;;;15.89;61.03;101189.97;4955126;28;20051;-62
2022/05/02 02:05:49;;;;;;;5.88;5.20;;;;;;;15.87;60.92;101183.91;4954005;28;20043;-64
2022/05/02 02:08:27;;;;;;;7.50;5.80;;;;;;;15.81;61.02;101186.06;4954868;28;20047;-63
2022/05/02 02:10:57;;;;;;;5.30;4.80;;;;;;;15.74;61.35;101183.94;4954162;28;20051;-64
2022/05/02 02:13:24;;;;;;;7.90;5.90;;;;;;;15.64;61.67;101183.72;4954759;28;20051;-62
2022/05/02 02:15:51;;;;;;;7.10;5.25;;;;;;;15.66;61.94;101179.19;4955077;28;20115;-62
2022/05/02 02:18:18;;;;;;;6.63;5.45;;;;;;;15.71;61.21;101179.69;4954900;28;20385;-62
2022/05/02 02:20:47;;;;;;;8.05;5.50;;;;;;;15.74;60.96;101184.75;4954462;28;20055;-61
2022/05/02 02:23:15;;;;;;;9.30;5.32;;;;;;;15.72;60.83;101180.53;4955045;28;20054;-62
2022/05/02 02:25:43;;;;;;;7.63;6.13;;;;;;;15.71;60.80;101182.34;4954705;28;20043;-61
2022/05/02 02:28:12;;;;;;;9.35;5.95;;;;;;;15.71;60.80;101190.28;4954836;28;20054;-63
2022/05/02 02:30:38;;;;;;;8.25;5.50;;;;;;;15.70;60.78;101190.41;4952588;28;20059;-62
2022/05/02 02:33:06;;;;;;;6.53;5.70;;;;;;;15.71;60.37;101185.00;4954732;28;20054;-63
2022/05/02 02:35:32;;;;;;;6.50;5.63;;;;;;;15.67;60.63;101186.16;4954399;28;20102;-61
2022/05/02 02:37:59;;;;;;;7.13;5.55;;;;;;;15.63;60.62;101185.53;4954657;28;20039;-62
2022/05/02 02:40:26;;;;;;;6.38;5.78;;;;;;;15.61;60.79;101184.78;4954488;28;20044;-63
2022/05/02 02:42:52;;;;;;;6.93;5.75;;;;;;;15.60;60.71;101190.19;4954560;28;20109;-62
2022/05/02 02:45:19;;;;;;;6.30;5.65;;;;;;;15.57;60.80;101188.63;4953626;28;20102;-63
2022/05/02 02:47:46;;;;;;;6.05;5.40;;;;;;;15.55;60.97;101182.56;4954308;28;20050;-62
2022/05/02 02:50:13;;;;;;;8.00;5.75;;;;;;;15.54;60.89;101178.25;4954006;28;20110;-61
2022/05/02 02:52:40;;;;;;;6.90;6.10;;;;;;;15.49;61.27;101178.56;4954226;28;20065;-61
2022/05/02 02:55:07;;;;;;;7.80;5.85;;;;;;;15.46;61.23;101170.00;4954358;28;20110;-61
2022/05/02 02:57:34;;;;;;;10.07;5.85;;;;;;;15.43;61.31;101173.72;4954095;28;20082;-64
2022/05/02 03:00:01;;;;;;;8.60;6.00;;;;;;;15.45;61.33;101178.91;4953321;28;20567;-65
2022/05/02 03:02:28;;;;;;;6.93;6.22;;;;;;;15.45;61.24;101177.13;4952313;28;20043;-61
2022/05/02 03:07:41;;;;;;;7.63;6.55;;;;;;;15.44;61.65;101179.84;4950880;28;20047;-62
2022/05/02 03:10:08;;;;;;;10.60;6.40;;;;;;;15.45;61.61;101171.81;4950491;28;20661;-62
2022/05/02 03:12:34;;;;;;;7.50;6.63;;;;;;;15.48;61.30;101165.47;4950727;28;20054;-61
2022/05/02 03:15:01;;;;;;;8.15;6.78;;;;;;;15.46;61.66;101167.38;4950979;28;20412;-61
2022/05/02 03:17:28;;;;;;;8.00;6.30;;;;;;;15.43;61.66;101168.44;4939235;29;20051;-62
2022/05/02 03:19:54;;;;;;;9.88;6.97;;;;;;;15.45;61.99;101165.66;4950919;28;20047;-61
2022/05/02 03:22:21;;;;;;;10.45;7.30;;;;;;;15.44;61.82;101159.53;4950583;28;20552;-62
2022/05/02 03:24:48;;;;;;;8.05;7.05;;;;;;;15.39;61.84;101161.69;4950771;28;20051;-65
2022/05/02 03:27:15;;;;;;;15.25;7.93;;;;;;;15.34;62.19;101161.16;4950969;28;20055;-64
2022/05/02 03:29:42;;;;;;;16.48;7.28;;;;;;;15.33;62.35;101164.75;4950806;28;20122;-61
2022/05/02 03:32:08;;;;;;;11.90;6.65;;;;;;;15.37;62.08;101168.84;4949573;28;20496;-61
2022/05/02 03:34:35;;;;;;;10.73;7.50;;;;;;;15.38;62.06;101161.78;4950535;28;20043;-62
2022/05/02 03:37:02;;;;;;;12.48;8.05;;;;;;;15.37;62.09;101168.03;4950896;28;20047;-61
2022/05/02 03:39:29;;;;;;;23.10;8.15;;;;;;;15.31;62.33;101169.28;4950478;28;20055;-62
2022/05/02 03:41:56;;;;;;;15.43;7.65;;;;;;;15.26;62.75;101166.13;4954350;28;20051;-61
2022/05/02 03:44:22;;;;;;;20.25;8.75;;;;;;;15.22;62.55;101168.13;4953338;28;20043;-62
2022/05/02 03:46:49;;;;;;;23.08;8.55;;;;;;;15.20;62.96;101162.13;4951799;28;20047;-62
2022/05/02 03:49:16;;;;;;;16.73;8.80;;;;;;;15.23;62.73;101158.41;4949577;28;20051;-61
2022/05/02 03:51:42;;;;;;;15.27;7.65;;;;;;;15.27;62.59;101167.81;4963732;28;20047;-62
2022/05/02 03:54:09;;;;;;;10.65;7.13;;;;;;;15.28;62.46;101153.66;4956194;28;20043;-61
2022/05/02 03:56:36;;;;;;;10.55;7.30;;;;;;;15.27;62.80;101160.72;4950453;28;20126;-61
2022/05/02 03:59:03;;;;;;;17.35;7.97;;;;;;;15.23;62.82;101161.06;4950332;28;20102;-61
2022/05/02 04:01:29;;;;;;;11.10;7.28;;;;;;;15.27;62.80;101151.94;4955960;28;20047;-62
2022/05/02 04:03:56;;;;;;;9.25;7.00;;;;;;;15.30;62.58;101157.00;4949606;28;20130;-64
2022/05/02 04:06:23;;;;;;;9.32;7.15;;;;;;;15.30;62.93;101157.88;4950085;28;20058;-61
2022/05/02 04:08:49;;;;;;;9.45;7.05;;;;;;;15.33;62.49;101159.47;4950557;28;20055;-61
2022/05/02 04:11:16;;;;;;;10.57;7.68;;;;;;;15.29;62.73;101156.19;4950275;28;20059;-61
2022/05/02 04:13:43;;;;;;;11.55;7.47;;;;;;;15.25;63.01;101162.63;4950108;28;20098;-61
2022/05/02 04:16:09;;;;;;;10.07;7.47;;;;;;;15.23;63.13;101171.63;4950252;28;20051;-62
2022/05/02 04:18:36;;;;;;;9.32;7.15;;;;;;;15.20;63.42;101164.75;4949828;28;20481;-61
2022/05/02 04:21:03;;;;;;;15.60;7.63;;;;;;;15.21;63.26;101165.59;4955928;28;20511;-61
2022/05/02 04:23:29;;;;;;;13.20;8.25;;;;;;;15.19;63.60;101173.63;4958419;28;20511;-61
2022/05/02 04:25:56;;;;;;;11.25;7.90;;;;;;;15.23;63.70;101169.00;4964208;28;20047;-61
2022/05/02 04:28:23;;;;;;;12.27;7.55;;;;;;;15.22;63.69;101175.22;4957601;28;20479;-61
2022/05/02 04:30:49;;;;;;;13.93;8.18;;;;;;;15.22;63.64;101183.16;4959371;28;20050;-61
2022/05/02 04:33:16;;;;;;;11.90;7.97;;;;;;;15.25;63.40;101178.50;4963365;28;20050;-61
2022/05/02 04:35:43;;;;;;;12.05;7.65;;;;;;;15.29;63.56;101177.31;4952603;28;20464;-61
2022/05/02 04:38:09;;;;;;;12.07;7.50;;;;;;;15.31;63.56;101177.22;4953590;28;20443;-61
2022/05/02 04:40:36;;;;;;;10.43;7.70;;;;;;;15.35;63.37;101179.56;4953463;28;20411;-61
2022/05/02 04:43:03;;;;;;;11.18;7.38;;;;;;;15.40;62.92;101176.59;4953403;28;20047;-62
2022/05/02 04:45:29;;;;;;;13.18;7.20;;;;;;;15.45;63.23;101181.53;4951684;28;20098;-61
2022/05/02 04:47:57;;;;;;;10.98;7.47;;;;;;;15.49;62.95;101180.34;4953713;28;20043;-62
2022/05/02 04:50:24;;;;;;;8.80;6.95;;;;;;;15.49;63.00;101181.22;4952931;29;20051;-64
2022/05/02 04:52:51;;;;;;;10.18;6.88;;;;;;;15.49;62.91;101178.56;4953241;28;20051;-61
2022/05/02 04:55:18;;;;;;;6.00;4.35;;;;;;;15.58;62.84;101177.09;4953127;28;20393;-61
2022/05/02 04:57:45;;;;;;;5.60;4.03;;;;;;;16.13;62.29;101174.91;4953128;28;20098;-61
2022/05/02 05:00:14;;;;;;;9.38;5.10;;;;;;;16.04;61.57;101175.59;4952963;28;20051;-61
2022/05/02 05:02:41;;;;;;;5.90;5.05;;;;;;;15.87;61.67;101179.50;4951694;28;20093;-61
2022/05/02 05:05:08;;;;;;;6.47;4.70;;;;;;;15.79;61.29;101177.34;4953198;28;20086;-62
2022/05/02 05:07:38;;;;;;;5.93;4.55;;;;;;;15.73;60.82;101183.09;4952800;28;20484;-62
2022/05/02 05:10:06;;;;;;;6.25;4.93;;;;;;;15.71;60.26;101181.50;4952672;28;20089;-62
2022/05/02 05:12:39;;;;;;;5.15;4.65;;;;;;;15.67;59.76;101186.16;4952952;28;20389;-62
2022/05/02 05:18:34;;;;;;;5.93;4.97;;;;;;;15.66;58.95;101185.31;4953054;28;20113;-61
2022/05/02 05:21:22;;;;;;;8.05;5.68;;;;;;;15.67;58.78;101191.47;4942881;29;20051;-61
2022/05/02 05:24:17;;;;;;;7.78;5.97;;;;;;;15.68;58.57;101187.88;4952747;28;20070;-61
2022/05/02 05:27:02;;;;;;;9.15;6.18;;;;;;;15.70;58.50;101187.75;4952847;28;20055;-61
2022/05/02 05:29:53;;;;;;;8.27;5.80;;;;;;;15.73;58.52;101187.53;4952646;28;20094;-61
2022/05/02 05:32:38;;;;;;;9.13;6.45;;;;;;;15.74;58.53;101191.88;4944672;29;20464;-61
2022/05/02 05:35:09;;;;;;;9.07;5.60;;;;;;;15.82;58.29;101189.53;4952452;28;20047;-61
2022/05/02 05:37:41;;;;;;;7.82;5.13;;;;;;;15.86;58.21;101184.88;4945016;28;20299;-63
2022/05/02 05:40:34;;;;;;;7.13;5.50;;;;;;;15.93;58.06;101186.13;4950537;28;20047;-62
2022/05/02 05:43:16;;;;;;;10.05;5.70;;;;;;;15.98;57.81;101186.63;4951259;29;20047;-62
2022/05/02 05:46:05;;;;;;;8.18;6.10;;;;;;;16.06;57.63;101188.72;4952264;28;20059;-61
2022/05/02 05:48:55;;;;;;;9.63;6.03;;;;;;;16.11;57.39;101187.44;4952197;28;20083;-61
2022/05/02 05:51:48;;;;;;;9.88;5.80;;;;;;;16.24;57.35;101191.81;4951093;29;20055;-61
2022/05/02 05:54:29;;;;;;;10.65;5.20;;;;;;;16.47;57.56;101190.13;4950604;28;20070;-63
2022/05/02 05:57:23;;;;;;;6.22;5.10;;;;;;;16.39;57.84;101188.06;4952341;28;20051;-61
2022/05/02 06:00:01;;;;;;;12.15;5.68;;;;;;;16.52;57.58;101200.38;4950729;29;20043;-61
2022/05/02 06:03:12;;;;;;;8.68;5.50;;;;;;;16.52;57.58;101197.72;4951973;28;20051;-62
2022/05/02 06:05:41;;;;;;;9.57;6.22;;;;;;;16.57;57.31;101195.56;4941700;28;20082;-62
2022/05/02 06:08:27;;;;;;;10.50;5.85;;;;;;;16.61;57.54;101197.06;4957252;28;20051;-61
2022/05/02 06:10:57;;;;;;;6.40;5.80;;;;;;;16.53;57.29;101197.63;4947335;29;20058;-60
2022/05/02 06:13:29;;;;;;;9.93;6.22;;;;;;;16.65;56.85;101198.50;4951453;29;20101;-61
2022/05/02 06:19:05;;;;;;;6.93;5.55;;;;;;;16.88;56.47;101198.56;4951722;28;20110;-62
2022/05/02 06:21:33;;;;;;;10.88;5.90;;;;;;;16.96;56.54;101201.50;4948992;28;20539;-61
2022/05/02 06:24:04;;;;;;;9.75;6.43;;;;;;;17.01;56.30;101191.38;4946994;29;20102;-62
2022/05/02 06:26:30;;;;;;;5.95;5.30;;;;;;;17.07;56.16;101203.34;4948512;28;20487;-62
2022/05/02 06:28:57;;;;;;;9.15;5.60;;;;;;;17.13;55.56;101197.56;4946649;29;20047;-62
2022/05/02 06:31:26;;;;;;;11.18;6.18;;;;;;;17.19;55.58;101206.84;4948302;28;20054;-62
2022/05/02 06:33:56;;;;;;;8.73;6.45;;;;;;;17.28;55.39;101203.47;4949841;28;20102;-66
2022/05/02 06:36:35;;;;;;;11.38;6.82;;;;;;;17.46;55.10;101206.53;4949507;28;20055;-65
2022/05/02 06:39:14;;;;;;;10.60;7.53;;;;;;;17.61;54.34;101202.66;4939036;28;20413;-66
2022/05/02 06:41:41;;;;;;;13.43;8.05;;;;;;;17.65;54.06;101205.91;4950185;28;20617;-62
2022/05/02 06:44:49;;;;;;;11.57;8.60;;;;;;;17.64;53.82;101193.59;4948276;28;20106;-61
2022/05/02 06:47:41;;;;;;;12.00;8.00;;;;;;;17.66;54.15;101199.66;4948264;28;20591;-62
2022/05/02 06:50:08;;;;;;;6.65;4.45;;;;;;;17.67;53.67;101201.31;4943354;29;20059;-63
2022/05/02 06:52:51;;;;;;;6.90;5.18;;;;;;;17.73;53.29;101205.31;4943517;28;20436;-66
2022/05/02 06:55:36;;;;;;;7.68;4.80;;;;;;;17.77;53.12;101199.59;4954161;28;20420;-62
2022/05/02 06:58:23;;;;;;;11.02;5.25;;;;;;;17.77;53.18;101207.56;4949124;29;20326;-62
2022/05/02 07:01:01;;;;;;;12.10;4.30;;;;;;;17.78;53.24;101198.63;4951064;28;20126;-62
2022/05/02 07:03:42;;;;;;;7.65;4.55;;;;;;;17.97;53.05;101207.81;4951148;28;20058;-63
2022/05/02 07:06:19;;;;;;;11.68;4.70;;;;;;;17.93;52.69;101201.06;4950678;28;20043;-61
2022/05/02 07:08:59;;;;;;;5.78;4.15;;;;;;;18.04;52.26;101202.84;4949977;28;20135;-62
2022/05/02 07:11:55;;;;;;;5.65;3.95;;;;;;;18.13;51.10;101207.41;4951133;28;20092;-62
2022/05/02 07:15:05;;;;;;;4.80;3.63;;;;;;;18.28;50.42;101205.31;4932478;28;20492;-61
2022/05/02 07:17:44;;;;;;;7.80;3.40;;;;;;;18.36;49.59;101207.34;4950868;28;20291;-62
2022/05/02 07:20:19;;;;;;;4.60;3.85;;;;;;;18.53;49.00;101205.97;4952216;28;20055;-61
2022/05/02 07:23:15;;;;;;;3.60;3.30;;;;;;;18.77;48.08;101208.38;4959010;28;20057;-61
2022/05/02 07:25:56;;;;;;;3.60;2.70;;;;;;;18.86;47.93;101204.09;4943162;28;20047;-61
2022/05/02 07:28:46;;;;;;;5.63;2.70;;;;;;;18.89;47.23;101212.66;4949988;28;20058;-62
2022/05/02 07:31:21;;;;;;;3.10;2.33;;;;;;;19.18;46.19;101206.69;4949756;28;20059;-64
2022/05/02 07:33:51;;;;;;;2.80;2.13;;;;;;;19.13;46.10;101208.91;4946184;28;20057;-64
2022/05/02 07:36:20;;;;;;;3.83;2.33;;;;;;;19.01;46.79;101204.66;4949806;28;20039;-62
2022/05/02 07:39:06;;;;;;;3.67;2.40;;;;;;;18.96;46.17;101215.69;4944128;28;20083;-62
2022/05/02 07:41:35;;;;;;;2.50;1.90;;;;;;;18.95;46.00;101221.97;4938537;29;20043;-62
2022/05/02 07:44:07;;;;;;;3.30;2.40;;;;;;;19.05;45.80;101214.06;4949120;28;20412;-61
2022/05/02 07:46:42;;;;;;;3.10;2.45;;;;;;;19.15;45.12;101222.09;4949883;28;20055;-61
2022/05/02 07:49:13;;;;;;;2.97;2.33;;;;;;;19.13;45.31;101221.38;4949783;28;20054;-61
2022/05/02 07:51:50;;;;;;;6.28;2.80;;;;;;;18.98;45.61;101216.41;4949180;28;20058;-63
2022/05/02 07:54:22;;;;;;;4.68;2.40;;;;;;;18.89;46.30;101225.09;4949934;28;20326;-63
2022/05/02 07:56:58;;;;;;;2.40;2.20;;;;;;;18.75;46.38;101219.16;4950158;29;20051;-61
2022/05/02 07:59:26;;;;;;;;;;;;;;;18.65;45.98;101223.56;4946678;28;20055;-61
2022/05/02 08:01:53;;;;;;;2.65;2.25;;;;;;;18.62;46.11;101233.59;4949789;28;19937;-62
2022/05/02 08:04:22;;;;;;;3.03;2.53;;;;;;;18.54;46.22;101228.91;4949261;28;20047;-62
2022/05/02 08:07:14;;;;;;;2.50;2.20;;;;;;;18.53;46.48;101230.72;4953766;29;20122;-62
2022/05/02 08:10:17;;;;;;;5.10;2.50;;;;;;;18.57;46.03;101229.47;4953590;28;20118;-61
2022/05/02 08:12:50;;;;;;;3.53;2.58;;;;;;;18.63;45.88;101235.25;4942995;29;20122;-61
2022/05/02 08:15:43;;;;;;;4.35;2.65;;;;;;;18.65;46.49;101230.66;4952172;28;20400;-61
2022/05/02 08:18:09;;;;;;;4.97;2.70;;;;;;;18.73;46.31;101244.19;4953324;28;20098;-61
2022/05/02 08:20:56;;;;;;;3.92;2.55;;;;;;;18.86;45.86;101239.50;4952876;28;20118;-61
2022/05/02 08:29:15;;;;;;;3.50;2.08;;;;;;;19.14;45.10;101247.00;4952168;29;20043;-62
2022/05/02 08:32:01;;;;;;;5.63;2.33;;;;;;;19.30;45.24;101247.38;4956229;28;20075;-64
2022/05/02 08:34:43;;;;;;;5.75;2.40;;;;;;;19.48;45.39;101246.78;4951049;28;20107;-62
2022/05/02 08:38:07;;;;;;;4.38;2.42;;;;;;;19.60;45.13;101248.34;4953136;28;20047;-62
2022/05/02 08:41:19;;;;;;;3.60;2.65;;;;;;;19.63;44.61;101250.75;4912111;29;20405;-62
2022/05/02 08:44:17;;;;;;;10.43;2.60;;;;;;;19.75;44.74;101249.66;4953122;28;20467;-63
2022/05/02 08:47:19;;;;;;;6.75;1.98;;;;;;;19.86;44.56;101250.59;4953176;28;20102;-61
2022/05/02 08:50:02;;;;;;;7.03;2.47;;;;;;;20.00;44.30;101244.06;4933682;29;20047;-63
2022/05/02 08:52:52;;;;;;;5.03;2.50;;;;;;;20.21;43.60;101252.78;4957811;28;20055;-63
2022/05/02 08:55:30;;;;;;;4.10;1.90;;;;;;;20.15;43.91;101249.81;4946439;29;20047;-62
2022/05/02 08:58:40;;;;;;;9.20;2.60;;;;;;;19.88;44.26;101249.50;4950492;29;20134;-62
2022/05/02 09:02:09;;;;;;;6.25;2.50;;;;;;;19.72;44.29;101249.13;4943830;29;20047;-61
2022/05/02 09:04:45;;;;;;;11.00;2.65;;;;;;;19.72;44.37;101249.13;4951672;28;20051;-62
2022/05/02 09:07:30;;;;;;;7.93;2.78;;;;;;;19.68;44.89;101251.19;4963377;28;20043;-61
2022/05/02 09:10:10;;;;;;;4.85;2.17;;;;;;;19.74;44.50;101250.66;4950960;29;20527;-61
2022/05/02 09:13:29;;;;;;;6.38;2.47;;;;;;;20.01;44.25;101249.25;4952063;28;20055;-64
2022/05/02 09:16:16;;;;;;;6.40;2.55;;;;;;;20.37;43.53;101244.25;4917032;28;20047;-61
2022/05/02 09:18:55;;;;;;;3.08;2.00;;;;;;;20.14;43.75;101245.50;4952571;28;20051;-66
2022/05/02 09:21:31;;;;;;;2.08;1.77;;;;;;;19.96;43.62;101243.47;4950882;28;20054;-62
2022/05/02 09:24:45;;;;;;;1.75;1.60;;;;;;;19.80;43.49;101246.59;4952169;28;20049;-63
2022/05/02 09:27:13;;;;;;;1.70;1.55;;;;;;;19.77;43.38;101235.38;4931085;28;20440;-63
2022/05/02 09:29:59;;;;;;;2.97;1.50;;;;;;;19.72;43.22;101238.47;4951832;28;20149;-63
2022/05/02 09:32:48;;;;;;;1.80;1.70;;;;;;;19.77;43.02;101235.38;4951219;28;20511;-65
2022/05/02 09:35:29;;;;;;;2.20;1.90;;;;;;;19.73;42.64;101238.31;4952133;28;20051;-64
2022/05/02 09:37:58;;;;;;;1.60;1.48;;;;;;;19.68;43.00;101237.88;4951547;28;20110;-63
2022/05/02 09:40:43;;;;;;;1.67;1.58;;;;;;;19.76;42.42;101237.22;4945241;29;20051;-63
2022/05/02 09:50:06;;;;;;;1.80;1.70;;;;;;;22.09;38.05;101222.03;4950285;29;20338;-64
2022/05/02 09:52:59;;;;;;;2.67;1.50;;;;;;;22.50;37.61;101217.97;4945628;29;20085;-65
2022/05/02 09:59:01;;;;;;;3.63;2.10;;;;;;;22.28;38.63;101215.72;4951868;28;20138;-66
2022/05/02 10:01:30;;;;;;;4.05;1.73;;;;;;;22.18;38.95;101207.75;4939547;29;20055;-63
2022/05/02 10:04:57;;;;;;;3.10;2.20;;;;;;;21.93;38.83;101206.66;4951607;28;20066;-64
2022/05/02 10:07:25;;;;;;;2.45;1.90;;;;;;;21.98;39.09;101202.56;4904736;29;20936;-63
2022/05/02 10:10:23;;;;;;;5.15;2.40;;;;;;;23.15;36.58;101202.59;4940901;28;20102;-66
2022/05/02 10:12:59;;;;;;;3.67;2.20;;;;;;;23.93;35.32;101198.94;4945088;29;20124;-64
2022/05/02 10:15:35;;;;;;;4.47;2.40;;;;;;;24.26;34.58;101188.25;4939847;29;20412;-63
2022/05/02 10:18:14;;;;;;;5.60;2.33;;;;;;;24.52;34.31;101186.38;4941865;29;20075;-65
2022/05/02 10:21:06;;;;;;;4.18;2.65;;;;;;;24.73;33.97;101185.91;4940539;28;20059;-63
2022/05/02 10:23:44;;;;;;;4.75;2.90;;;;;;;24.91;33.61;101186.56;4935765;29;20047;-63
2022/05/02 10:26:25;;;;;;;3.58;2.40;;;;;;;25.21;33.06;101184.13;4946895;28;20050;-63
2022/05/02 10:29:30;;;;;;;2.83;2.08;;;;;;;25.44;32.55;101180.72;4948552;28;20231;-64
2022/05/02 10:32:08;;;;;;;3.85;2.08;;;;;;;25.65;31.99;101182.81;4941940;28;20048;-63
2022/05/02 10:34:37;;;;;;;2.70;2.00;;;;;;;25.64;31.96;101174.94;4946849;28;20132;-63
2022/05/02 10:37:09;;;;;;;2.63;2.35;;;;;;;25.77;31.53;101174.34;4944588;28;20051;-65
2022/05/02 10:39:47;;;;;;;2.60;2.10;;;;;;;26.04;31.34;101170.31;4949450;29;20047;-66
2022/05/02 10:42:18;;;;;;;4.65;2.22;;;;;;;26.28;31.14;101163.09;4949038;28;20653;-64
2022/05/02 10:44:55;;;;;;;6.25;2.60;;;;;;;26.38;30.71;101164.50;4941862;29;20488;-64
2022/05/02 10:47:25;;;;;;;2.83;2.30;;;;;;;26.44;30.65;101159.44;4947364;29;20051;-62
2022/05/02 10:50:13;;;;;;;3.20;2.33;;;;;;;26.67;30.22;101157.53;4940635;28;20118;-65
2022/05/02 10:52:46;;;;;;;2.55;2.20;;;;;;;26.79;30.01;101154.41;4948715;28;20098;-63
2022/05/02 10:55:26;;;;;;;4.15;2.30;;;;;;;26.96;29.66;101147.03;4949558;28;20054;-63
2022/05/02 10:57:59;;;;;;;4.60;2.70;;;;;;;27.08;29.32;101156.28;4950236;28;20092;-62
2022/05/02 11:00:26;;;;;;;5.13;2.28;;;;;;;27.17;28.76;101151.63;4948207;28;20047;-62
2022/05/02 11:03:28;;;;;;;3.20;2.63;;;;;;;27.22;28.29;101141.13;4945300;28;20512;-66
2022/05/02 11:06:26;;;;;;;3.50;2.70;;;;;;;27.19;28.23;101146.91;4952902;28;20051;-63
2022/05/02 11:08:58;;;;;;;5.53;2.88;;;;;;;27.53;27.64;101140.94;4937262;29;20382;-64
2022/05/02 11:11:50;;;;;;;4.00;2.83;;;;;;;27.42;27.94;101141.41;4948936;28;20170;-64
2022/05/02 11:14:16;;;;;;;2.92;2.40;;;;;;;26.07;30.21;101135.03;4949939;29;20039;-62
2022/05/02 11:17:11;;;;;;;2.35;2.15;;;;;;;25.78;30.48;101135.72;4950332;28;20139;-62
2022/05/02 11:22:36;;;;;;;2.53;2.10;;;;;;;25.81;30.37;101133.47;4945326;28;20047;-63
2022/05/02 11:25:20;;;;;;;2.38;2.17;;;;;;;25.26;31.17;101140.63;4958575;28;20492;-62
2022/05/02 11:28:19;;;;;;;4.03;2.13;;;;;;;24.57;32.07;101135.75;4937974;28;20452;-62
2022/05/02 11:31:04;;;;;;;9.85;2.50;;;;;;;24.29;32.31;101128.06;4932229;29;20113;-64
2022/05/02 11:34:01;;;;;;;2.75;2.20;;;;;;;24.13;32.52;101131.59;4949548;28;20138;-63
2022/05/02 11:36:42;;;;;;;2.50;2.15;;;;;;;25.10;30.86;101126.28;4946609;28;20051;-63
2022/05/02 11:39:16;;;;;;;2.30;2.10;;;;;;;25.64;30.09;101122.00;4949314;29;20488;-62
2022/05/02 11:41:47;;;;;;;3.47;2.78;;;;;;;26.13;29.23;101110.09;4953348;28;20054;-62
2022/05/02 11:44:14;;;;;;;2.83;2.38;;;;;;;25.75;30.08;101101.97;4952894;28;20070;-62
2022/05/02 11:46:49;;;;;;;3.13;2.80;;;;;;;24.56;32.18;101112.63;4943063;28;20114;-62
2022/05/02 11:49:38;;;;;;;2.90;2.60;;;;;;;24.78;32.31;101109.25;4953710;28;20059;-62
2022/05/02 11:52:11;;;;;;;3.03;2.55;;;;;;;25.68;31.07;101099.13;4952906;28;20915;-63
2022/05/02 11:54:42;;;;;;;10.60;2.60;;;;;;;26.58;29.59;101085.97;4953793;28;20070;-62
2022/05/02 11:57:22;;;;;;;15.32;3.30;;;;;;;26.98;28.59;101086.56;4952917;28;20055;-63
2022/05/02 12:00:07;;;;;;;10.43;2.20;;;;;;;27.38;27.88;101088.91;4955332;28;20042;-63
2022/05/02 12:02:37;;;;;;;3.55;2.50;;;;;;;27.49;28.19;101083.03;4959489;28;20052;-63
2022/05/02 12:05:10;;;;;;;3.45;2.40;;;;;;;27.69;27.67;101077.84;4956081;28;20487;-63
2022/05/02 12:07:39;;;;;;;5.57;2.67;;;;;;;27.63;27.98;101067.84;4954197;28;20051;-62
2022/05/02 12:10:12;;;;;;;3.13;2.70;;;;;;;27.72;28.02;101067.69;4953676;28;20058;-62
2022/05/02 12:12:48;;;;;;;4.07;2.65;;;;;;;27.81;27.71;101070.06;4952990;28;20059;-62
2022/05/02 12:15:15;;;;;;;2.50;2.28;;;;;;;27.46;28.21;101067.22;4953612;28;20053;-63
2022/05/02 12:18:07;;;;;;;3.13;2.83;;;;;;;27.61;27.77;101069.88;4953585;28;20080;-62
2022/05/02 12:20:37;;;;;;;3.53;2.35;;;;;;;26.58;29.46;101069.00;4953294;28;20452;-62
2022/05/02 12:23:15;;;;;;;3.58;2.72;;;;;;;26.36;29.74;101074.22;4952771;28;20522;-63
2022/05/02 12:25:55;;;;;;;4.70;2.60;;;;;;;27.22;28.55;101068.38;4952327;28;20169;-62
2022/05/02 12:28:42;;;;;;;5.25;2.75;;;;;;;27.00;28.35;101065.63;4944364;28;20071;-63
2022/05/02 12:31:36;;;;;;;4.05;2.75;;;;;;;27.03;28.25;101057.19;4947912;29;20094;-65